METAR Data
IDs: Format: Raw Decoded Include TAF

Data at: 0205 UTC 24 Sep 2018

KRYW 240155Z AUTO 00000KT 10SM OVC018 22/21 A2993 RMK AO2 T02170205
KRYW 240135Z AUTO 00000KT 10SM OVC018 22/20 A2992 RMK AO2 T02180203
KRYW 240115Z AUTO 00000KT 10SM OVC018 22/20 A2992 RMK AO2 T02190202
KRYW 240055Z AUTO 00000KT 10SM OVC023 22/20 A2992 RMK AO2 T02190203
KRYW 240035Z AUTO 00000KT 10SM OVC024 22/20 A2991 RMK AO2 T02200201
KRYW 240015Z AUTO 33003KT 10SM OVC022 22/20 A2991 RMK AO2 T02210201
KRYW 232355Z AUTO 33003KT 10SM OVC020 22/20 A2991 RMK AO2 T02220200 10233 20217
KRYW 232335Z AUTO 35004KT 10SM OVC018 23/20 A2991 RMK AO2 T02250199
KRYW 232315Z AUTO 00000KT 10SM OVC018 23/20 A2990 RMK AO2 T02260202
KRYW 232255Z AUTO 33003KT 10SM OVC016 23/20 A2991 RMK AO2 T02270201
KRYW 232235Z AUTO 00000KT 10SM OVC020 23/20 A2991 RMK AO2 T02320202
KRYW 232215Z AUTO 29004KT 10SM BKN020 OVC026 23/20 A2991 RMK AO2 T02300200
KRYW 232155Z AUTO 29004KT 10SM SCT017 BKN023 OVC047 23/20 A2992 RMK AO2 T02300201
KRYW 232135Z AUTO 00000KT 10SM BKN015 BKN023 OVC030 23/20 A2992 RMK AO2 T02280203
KRYW 232115Z AUTO 31003KT 10SM SCT012 BKN018 OVC030 23/20 A2992 RMK AO2 T02320203
KRYW 232055Z AUTO 30003KT 10SM SCT014 OVC019 23/20 A2993 RMK AO2 T02260204
KRYW 232035Z AUTO 30003KT 10SM BKN014 OVC019 23/20 A2993 RMK AO2 T02270199
KRYW 232015Z AUTO 29004KT 10SM OVC018 23/20 A2994 RMK AO2 T02290202
KRYW 231955Z AUTO 32004KT 7SM -RA OVC016 22/20 A2994 RMK AO2 T02240198
KRYW 231935Z AUTO 00000KT 10SM OVC016 23/20 A2995 RMK AO2 T02250196
KRYW 231915Z AUTO 27004KT 10SM OVC016 23/19 A2996 RMK AO2 T02270194
KRYW 231855Z AUTO 00000KT 10SM OVC018 23/20 A2996 RMK AO2 T02320196
KRYW 231835Z AUTO 31005KT 10SM BKN016 OVC022 23/20 A2997 RMK AO2 T02260195
KRYW 231815Z AUTO 29005KT 7SM OVC016 22/20 A2998 RMK AO2 T02180197
KRYW 231755Z AUTO 27004KT 7SM -RA OVC016 22/20 A2998 RMK AO2 T02190195 10226 20194
KRYW 231735Z AUTO 27006KT 10SM OVC018 22/19 A2998 RMK AO2 T02220190
KRYW 231715Z AUTO 29005KT 10SM OVC016 22/19 A2998 RMK AO2 T02230190
KRYW 231655Z AUTO 28005KT 10SM OVC016 22/19 A2998 RMK AO2 T02200190
KRYW 231635Z AUTO 30003KT 10SM OVC016 22/19 A2998 RMK AO2 T02200188
KRYW 231615Z AUTO 34004KT 10SM OVC018 22/19 A2998 RMK AO2 T02230186
KRYW 231555Z AUTO 31004KT 10SM OVC016 22/19 A2998 RMK AO2 T02230190
KRYW 231535Z AUTO 33003KT 10SM BKN016 BKN024 22/19 A2998 RMK AO2 T02180192
KRYW 231515Z AUTO 30005KT 10SM BKN014 OVC019 22/19 A2998 RMK AO2 T02200193
KRYW 231455Z AUTO 34007KT 300V010 10SM BKN012 OVC022 21/19 A2998 RMK AO2 T02110191
KRYW 231435Z AUTO 32004KT 10SM SCT007 BKN014 OVC022 20/20 A2998 RMK AO2 T02030196
KRYW 231415Z AUTO 34004KT 10SM BKN007 BKN012 OVC018 21/20 A2997 RMK AO2 T02050196
KRYW 231355Z AUTO 31003KT 10SM SCT005 BKN012 OVC020 20/20 A2997 RMK AO2 T02000200
KRYW 231335Z AUTO 31004KT 7SM SCT005 BKN012 OVC027 20/20 A2996 RMK AO2 T01980198
KRYW 231315Z AUTO 29004KT 10SM SCT007 SCT015 OVC025 20/20 A2996 RMK AO2 T01970197
KRYW 231255Z AUTO 00000KT 10SM BKN009 BKN016 OVC028 20/20 A2995 RMK AO2 T01960196
KRYW 231235Z AUTO 00000KT 10SM BKN009 OVC017 20/20 A2995 RMK AO2 T01960196
KRYW 231215Z AUTO 00000KT 10SM SCT011 BKN017 OVC025 20/20 A2994 RMK AO2 T01950195
KRYW 231155Z AUTO 30004KT 10SM SCT015 OVC025 19/19 A2994 RMK AO2 T01940194 10196 20191
KRYW 231135Z AUTO 32004KT 10SM SCT004 BKN013 OVC023 20/20 A2994 RMK AO2 T01950195
KRYW 231115Z AUTO 27003KT 4SM DZ SCT006 OVC013 20/20 A2994 RMK AO2 T01950195
KRYW 231055Z AUTO 30003KT 10SM BKN010 BKN015 OVC023 20/20 A2993 RMK AO2 T01950195
KRYW 231035Z AUTO 00000KT 10SM SCT010 SCT014 OVC021 20/20 A2993 RMK AO2 T01950195
KRYW 231015Z AUTO 29003KT 7SM RA SCT010 OVC016 20/20 A2993 RMK AO2 T01950195
KRYW 230955Z AUTO 31004KT 5SM DZ OVC014 20/20 A2993 RMK AO2 T01950195
KRYW 230935Z AUTO 00000KT 7SM DZ OVC014 20/20 A2993 RMK AO2 T01950195
KRYW 230915Z AUTO 00000KT 10SM OVC012 20/20 A2994 RMK AO2 T01950195
KRYW 230855Z AUTO 30003KT 10SM OVC012 20/20 A2993 RMK AO2 T01950195
KRYW 230835Z AUTO 28003KT 10SM OVC010 20/20 A2994 RMK AO2 T01950195
KRYW 230815Z AUTO 29003KT 10SM OVC010 20/19 A2995 RMK AO2 T01950193
KRYW 230755Z AUTO 28003KT 10SM OVC010 20/19 A2995 RMK AO2 T01950190
KRYW 230735Z AUTO 28003KT 10SM OVC010 20/19 A2995 RMK AO2 LTG DSNT E T01950187
KRYW 230715Z AUTO 27004KT 10SM OVC010 19/19 A2996 RMK AO2 T01930186
KRYW 230655Z AUTO 27003KT 10SM BKN012 BKN030 19/19 A2996 RMK AO2 T01920186
KRYW 230635Z AUTO 28004KT 10SM BKN012 BKN028 19/19 A2996 RMK AO2 T01930185
KRYW 230615Z AUTO 28005KT 10SM BKN012 OVC029 20/19 A2997 RMK AO2 T01950185
KRYW 230600Z AUTO 28004KT 10SM BKN012 OVC029 20/19 A2997 RMK AO2 T01950185
KRYW 230535Z AUTO 27005KT 10SM OVC029 20/19 A2998 RMK AO2 T01950185
KRYW 230515Z AUTO 27004KT 10SM OVC029 20/19 A2998 RMK AO2 T01950185
KRYW 230455Z AUTO 27004KT 10SM OVC029 20/18 A2998 RMK AO2 T01950184
KRYW 230435Z AUTO 28004KT 10SM OVC029 20/18 A2998 RMK AO2 T01950183
KRYW 230415Z AUTO 28004KT 10SM OVC027 20/18 A2998 RMK AO2 T01960182
KRYW 230355Z AUTO 28004KT 10SM OVC025 20/18 A2999 RMK AO2 T01960181
KRYW 230335Z AUTO 28004KT 10SM OVC025 20/18 A2999 RMK AO2 T01970181
KRYW 230315Z AUTO 27005KT 10SM OVC025 20/18 A2999 RMK AO2 T01980181
KRYW 230255Z AUTO 28005KT 10SM BKN021 OVC027 20/18 A2999 RMK AO2 T01990181
KRYW 230235Z AUTO 28006KT 10SM OVC021 20/18 A2998 RMK AO2 T01980181
KRYW 230215Z AUTO 28004KT 10SM OVC019 20/18 A2998 RMK AO2 T02000180
KRYW 230155Z AUTO 30004KT 10SM BKN019 OVC026 20/18 A2998 RMK AO2 T01980180
KRYW 230135Z AUTO 00000KT 10SM OVC019 20/18 A2998 RMK AO2 T01980179
KRYW 230115Z AUTO 31004KT 10SM OVC017 20/18 A2998 RMK AO2 T01980178
KRYW 230055Z AUTO 31003KT 10SM BKN015 OVC020 20/18 A2998 RMK AO2 T02000179
KRYW 230035Z AUTO 31004KT 10SM OVC018 20/18 A2997 RMK AO2 T02000176
KRYW 230015Z AUTO 30003KT 10SM OVC016 20/18 A2997 RMK AO2 T02010177
KRYW 222355Z AUTO 29006KT 10SM OVC014 20/18 A2996 RMK AO2 T02010176 10225 20201
KRYW 222335Z AUTO 31004KT 10SM OVC014 21/18 A2996 RMK AO2 T02050180
KRYW 222315Z AUTO 30007KT 10SM OVC016 21/18 A2996 RMK AO2 T02060176
KRYW 222255Z AUTO 30006KT 10SM OVC016 21/18 A2996 RMK AO2 T02060177
KRYW 222235Z AUTO 32006KT 10SM OVC016 21/18 A2996 RMK AO2 T02100177
KRYW 222215Z AUTO 30007KT 10SM OVC014 21/18 A2996 RMK AO2 T02100178
KRYW 222155Z AUTO 30007KT 10SM OVC014 21/18 A2997 RMK AO2 T02110178
KRYW 222135Z AUTO 31006KT 10SM OVC014 21/18 A2997 RMK AO2 LTG DSNT E T02130179
KRYW 222115Z AUTO 32007KT 10SM OVC014 21/18 A2996 RMK AO2 T02140179
KRYW 222055Z AUTO 32008G15KT 10SM OVC014 21/18 A2997 RMK AO2 T02130178
KRYW 222035Z AUTO 29007G15KT 10SM OVC014 21/18 A2997 RMK AO2 T02110181
KRYW 222015Z AUTO 31009KT 10SM OVC014 21/18 A2997 RMK AO2 LTG DSNT E T02140180
KRYW 221955Z AUTO 29007KT 10SM OVC014 22/18 A2997 RMK AO2 T02150184
KRYW 221935Z AUTO 31006KT 10SM OVC014 22/18 A2998 RMK AO2 T02180181
KRYW 221915Z AUTO 30009G14KT 10SM OVC014 22/18 A2998 RMK AO2 T02150182
KRYW 221855Z AUTO 30007KT 10SM OVC014 22/18 A2998 RMK AO2 T02220184
KRYW 221835Z AUTO 32010KT 10SM OVC012 22/19 A2999 RMK AO2 T02230187
KRYW 221815Z AUTO 31012G17KT 10SM OVC012 22/19 A2999 RMK AO2 LTG DSNT E T02230185
KRYW 221755Z AUTO 31010G16KT 10SM OVC012 22/19 A3000 RMK AO2 LTG DSNT E T02200187 10226 20191
KRYW 221735Z AUTO 29008G14KT 10SM OVC010 22/19 A3000 RMK AO2 T02150189
KRYW 221715Z AUTO 30009G16KT 10SM OVC010 21/19 A3000 RMK AO2 T02070188
KRYW 221655Z AUTO 30007KT 10SM OVC008 21/19 A3001 RMK AO2 T02050189
KRYW 221635Z AUTO 30007KT 10SM OVC008 21/19 A3001 RMK AO2 T02050192
KRYW 221615Z AUTO 28007KT 10SM OVC006 20/19 A3001 RMK AO2 T01970193
KRYW 221555Z AUTO 30007KT 10SM OVC006 20/20 A3000 RMK AO2 T01960196
KRYW 221535Z AUTO 29008KT 10SM OVC006 19/19 A3001 RMK AO2 T01930193
KRYW 221515Z AUTO 30005KT 10SM OVC006 20/20 A3000 RMK AO2 T01950195
KRYW 221455Z AUTO 28008KT 10SM OVC006 19/19 A3000 RMK AO2 T01930193
KRYW 221435Z AUTO 30007KT 10SM BKN006 OVC019 19/19 A3000 RMK AO2 T01930193
KRYW 221415Z AUTO 30009KT 10SM SCT004 BKN008 OVC019 19/19 A3000 RMK AO2 T01930193